Time;durP1;ratioP1;P1;durP2;ratioP2;P2;SDS_P1;SDS_P2;PMS_P1;PMS_P2;Temp;Humidity;BMP_temperature;BMP_pressure;BME280_temperature;BME280_humidity;BME280_pressure;Samples;Min_cycle;Max_cycle;Signal;HPM_P1;HPM_P2
2022/07/04 00:02:06;;;;;;;2.73;2.50;;;;;;;16.69;70.67;100639.31;5080730;28;20471;-62
2022/07/04 00:04:34;;;;;;;5.30;2.43;;;;;;;16.66;70.62;100640.50;5096811;28;20436;-62
2022/07/04 00:07:01;;;;;;;2.60;2.17;;;;;;;16.73;70.83;100637.94;5089938;28;20505;-62
2022/07/04 00:09:28;;;;;;;2.87;2.60;;;;;;;16.76;70.68;100645.72;5098965;28;20482;-62
2022/07/04 00:11:54;;;;;;;4.27;2.47;;;;;;;16.67;70.88;100646.75;5099831;28;20501;-62
2022/07/04 00:14:21;;;;;;;3.80;2.20;;;;;;;16.60;71.02;100643.88;5089482;28;20496;-62
2022/07/04 00:16:47;;;;;;;4.73;2.50;;;;;;;16.51;71.30;100640.34;5087653;28;20482;-62
2022/07/04 00:19:14;;;;;;;4.67;2.70;;;;;;;16.49;71.30;100644.22;5096201;28;20427;-62
2022/07/04 00:21:42;;;;;;;3.10;2.57;;;;;;;16.45;71.44;100640.19;5112304;28;20890;-62
2022/07/04 00:24:09;;;;;;;3.60;3.20;;;;;;;16.43;71.60;100631.41;5120390;28;20482;-62
2022/07/04 00:26:35;;;;;;;2.90;2.70;;;;;;;16.43;71.91;100629.56;5120757;28;20498;-62
2022/07/04 00:29:02;;;;;;;3.60;2.90;;;;;;;16.38;71.89;100626.50;5120641;28;20472;-63
2022/07/04 00:31:29;;;;;;;3.10;2.37;;;;;;;16.32;72.06;100632.59;5119987;28;20481;-63
2022/07/04 00:33:55;;;;;;;3.10;2.47;;;;;;;16.28;72.45;100639.34;5120000;28;20450;-63
2022/07/04 00:36:22;;;;;;;3.37;2.50;;;;;;;16.30;72.24;100637.31;5120758;28;20544;-63
2022/07/04 00:38:50;;;;;;;3.43;2.70;;;;;;;16.28;72.60;100637.47;5120457;28;20437;-63
2022/07/04 00:41:17;;;;;;;4.43;2.77;;;;;;;16.18;72.80;100636.81;5119732;28;20988;-63
2022/07/04 00:43:44;;;;;;;3.23;2.93;;;;;;;16.10;73.01;100634.94;5120875;28;20454;-64
2022/07/04 00:46:10;;;;;;;3.63;2.73;;;;;;;16.03;72.98;100633.94;5118947;28;20477;-64
2022/07/04 00:48:37;;;;;;;2.63;2.40;;;;;;;16.03;72.63;100638.50;5121620;28;20470;-64
2022/07/04 00:51:04;;;;;;;6.50;2.60;;;;;;;15.99;73.19;100635.28;5111812;28;20479;-64
2022/07/04 00:53:31;;;;;;;3.07;2.73;;;;;;;15.99;73.41;100632.59;5100454;28;20450;-63
2022/07/04 00:55:59;;;;;;;6.10;2.87;;;;;;;16.04;73.17;100630.22;5098829;28;20497;-64
2022/07/04 00:58:25;;;;;;;3.67;2.70;;;;;;;16.11;73.10;100636.63;5099444;28;20436;-64
2022/07/04 01:00:52;;;;;;;3.87;3.47;;;;;;;16.12;72.86;100624.81;5106046;28;20477;-64
2022/07/04 01:03:19;;;;;;;4.80;2.80;;;;;;;16.12;72.29;100638.31;5120625;28;20442;-64
2022/07/04 01:05:46;;;;;;;4.60;2.60;;;;;;;15.95;73.27;100631.22;5120056;28;20610;-64
2022/07/04 01:08:13;;;;;;;3.43;2.70;;;;;;;15.92;73.83;100627.00;5120751;28;20498;-64
2022/07/04 01:10:40;;;;;;;3.80;3.00;;;;;;;15.82;74.34;100632.53;5118973;28;20997;-64
2022/07/04 01:13:08;;;;;;;4.47;3.03;;;;;;;15.72;74.58;100630.97;5120742;28;20446;-63
2022/07/04 01:15:35;;;;;;;3.73;2.83;;;;;;;15.67;75.03;100627.94;5116082;28;20482;-63
2022/07/04 01:18:01;;;;;;;3.37;2.90;;;;;;;15.72;74.81;100625.59;5099222;28;20439;-63
2022/07/04 01:20:36;;;;;;;9.37;3.40;;;;;;;15.73;74.68;100630.81;5099630;28;20467;-63
2022/07/04 01:23:02;;;;;;;3.77;2.77;;;;;;;15.66;74.81;100628.94;5100172;28;20517;-63
2022/07/04 01:25:29;;;;;;;3.73;3.00;;;;;;;15.68;74.92;100632.31;5102287;28;20476;-63
2022/07/04 01:27:56;;;;;;;4.13;2.40;;;;;;;15.66;74.87;100637.88;5120245;28;20438;-63
2022/07/04 01:30:23;;;;;;;3.83;2.80;;;;;;;15.63;75.04;100635.50;5119820;28;20486;-62
2022/07/04 01:32:49;;;;;;;5.80;3.20;;;;;;;15.62;75.39;100620.31;5113087;28;20486;-63
2022/07/04 01:35:16;;;;;;;4.47;3.10;;;;;;;15.57;75.12;100622.66;5096276;28;20480;-62
2022/07/04 01:37:44;;;;;;;3.53;2.70;;;;;;;15.53;75.33;100622.16;5097882;28;20584;-62
2022/07/04 01:40:12;;;;;;;3.07;2.87;;;;;;;15.49;75.26;100615.41;5092597;28;20451;-62
2022/07/04 01:42:39;;;;;;;3.60;2.93;;;;;;;15.46;75.34;100612.22;5090007;28;20461;-63
2022/07/04 01:45:07;;;;;;;4.70;3.00;;;;;;;15.35;75.77;100611.50;5100173;28;20479;-62
2022/07/04 01:47:34;;;;;;;3.13;2.83;;;;;;;15.39;75.96;100610.16;5122221;28;20462;-62
2022/07/04 01:50:01;;;;;;;3.20;2.50;;;;;;;15.46;75.54;100606.81;5123925;28;20508;-62
2022/07/04 01:52:28;;;;;;;3.37;3.07;;;;;;;15.38;75.15;100613.88;5123550;28;20492;-62
2022/07/04 01:54:56;;;;;;;2.83;2.50;;;;;;;15.26;76.05;100607.09;5123321;28;21230;-62
2022/07/04 01:57:22;;;;;;;5.90;3.20;;;;;;;15.29;75.88;100616.69;5123809;28;20513;-62
2022/07/04 02:02:33;;;;;;;3.90;3.13;;;;;;;15.25;75.66;100618.88;5123550;28;20506;-63
2022/07/04 02:05:00;;;;;;;4.27;2.63;;;;;;;15.17;76.37;100617.00;5123999;28;20449;-63
2022/07/04 02:07:27;;;;;;;3.93;2.73;;;;;;;15.24;76.08;100614.47;5122804;28;20937;-62
2022/07/04 02:09:53;;;;;;;3.93;3.13;;;;;;;15.30;75.86;100608.44;5123049;28;21001;-63
2022/07/04 02:15:07;;;;;;;3.20;2.60;;;;;;;15.29;75.65;100614.81;5120732;28;20467;-62
2022/07/04 02:17:35;;;;;;;4.33;2.97;;;;;;;15.23;75.46;100612.81;5123186;28;20466;-62
2022/07/04 02:20:01;;;;;;;3.47;2.77;;;;;;;15.18;75.35;100615.13;5123259;28;20442;-62
2022/07/04 02:22:28;;;;;;;4.80;3.33;;;;;;;15.11;75.33;100619.47;5122879;28;20846;-62
2022/07/04 02:24:55;;;;;;;3.90;3.50;;;;;;;14.93;74.88;100619.53;5122552;28;20510;-62
2022/07/04 02:27:23;;;;;;;3.47;3.17;;;;;;;14.87;75.15;100623.72;5123226;28;21160;-63
2022/07/04 02:29:50;;;;;;;3.30;2.80;;;;;;;14.90;75.26;100625.28;5123710;28;20527;-63
2022/07/04 02:32:16;;;;;;;5.47;3.47;;;;;;;14.83;75.23;100625.06;5123200;28;20466;-62
2022/07/04 02:34:43;;;;;;;2.93;2.53;;;;;;;14.82;75.44;100628.75;5123258;28;20458;-62
2022/07/04 02:37:10;;;;;;;2.93;2.70;;;;;;;14.77;75.39;100623.84;5123123;28;20691;-62
2022/07/04 02:39:37;;;;;;;4.20;2.93;;;;;;;14.76;75.50;100630.22;5122266;28;20450;-63
2022/07/04 02:42:04;;;;;;;5.10;2.60;;;;;;;14.78;75.15;100627.38;5122572;28;20545;-62
2022/07/04 02:44:32;;;;;;;3.37;2.90;;;;;;;14.76;75.69;100634.78;5122992;28;20480;-62
2022/07/04 02:46:58;;;;;;;6.80;3.50;;;;;;;14.73;75.95;100633.22;5121763;28;20474;-62
2022/07/04 02:49:25;;;;;;;5.23;2.93;;;;;;;14.77;76.17;100641.81;5122855;28;20434;-64
2022/07/04 02:51:52;;;;;;;4.47;3.00;;;;;;;14.76;76.29;100643.69;5106979;27;20663;-64
2022/07/04 02:54:19;;;;;;;3.37;3.07;;;;;;;14.67;76.17;100650.84;5101349;28;20482;-64
2022/07/04 02:56:45;;;;;;;3.17;2.87;;;;;;;14.66;75.97;100651.00;5114829;28;20473;-64
2022/07/04 02:59:12;;;;;;;3.50;3.20;;;;;;;14.66;76.20;100656.41;5122964;28;20442;-64
2022/07/04 03:01:40;;;;;;;4.03;3.60;;;;;;;14.66;75.96;100661.78;5121308;28;20477;-63
2022/07/04 03:04:07;;;;;;;8.67;3.60;;;;;;;14.61;76.06;100658.72;5122769;28;20439;-63
2022/07/04 03:06:33;;;;;;;3.23;2.93;;;;;;;14.62;76.06;100655.88;5109417;28;21008;-63
2022/07/04 03:09:00;;;;;;;4.57;3.90;;;;;;;14.63;76.07;100662.09;5101653;28;20471;-63
2022/07/04 03:11:27;;;;;;;3.50;3.20;;;;;;;14.66;76.05;100661.78;5101463;28;20486;-63
2022/07/04 03:13:53;;;;;;;4.33;2.50;;;;;;;14.69;76.20;100661.47;5102469;28;20442;-63
2022/07/04 03:16:20;;;;;;;3.90;3.47;;;;;;;14.67;76.68;100660.78;5110847;28;20478;-64
2022/07/04 03:18:48;;;;;;;5.60;3.43;;;;;;;14.71;76.61;100664.00;5122368;28;21128;-64
2022/07/04 03:21:15;;;;;;;5.00;3.67;;;;;;;14.66;76.93;100665.31;5121318;28;20473;-64
2022/07/04 03:23:41;;;;;;;5.13;3.30;;;;;;;14.67;77.06;100672.38;5121247;28;20442;-64
2022/07/04 03:26:09;;;;;;;4.43;3.53;;;;;;;14.73;76.67;100672.75;5114959;28;20478;-64
2022/07/04 03:28:35;;;;;;;6.13;3.33;;;;;;;14.74;76.36;100680.69;5102243;28;20447;-64
2022/07/04 03:31:02;;;;;;;3.80;3.40;;;;;;;14.79;75.94;100680.19;5112963;28;20480;-64
2022/07/04 03:33:29;;;;;;;4.13;3.60;;;;;;;14.88;75.79;100685.50;5102341;28;20455;-64
2022/07/04 03:35:57;;;;;;;4.63;4.10;;;;;;;14.93;75.37;100686.84;5093068;28;20530;-64
2022/07/04 03:38:23;;;;;;;4.70;4.17;;;;;;;15.19;75.12;100686.84;5070598;28;20436;-64
2022/07/04 03:40:50;;;;;;;7.50;3.67;;;;;;;15.69;73.58;100688.75;5081217;28;20471;-64
2022/07/04 03:43:17;;;;;;;5.90;3.80;;;;;;;16.99;68.86;100699.88;5082582;28;20456;-64
2022/07/04 03:45:43;;;;;;;4.37;3.90;;;;;;;18.03;64.45;100686.31;5095743;28;20482;-64
2022/07/04 03:48:10;;;;;;;3.73;3.43;;;;;;;18.86;61.12;100697.38;5098168;28;20471;-64
2022/07/04 03:50:37;;;;;;;3.30;3.00;;;;;;;19.59;58.28;100698.44;5100286;28;21080;-64
2022/07/04 03:53:05;;;;;;;2.80;2.60;;;;;;;20.42;55.54;100698.16;5086244;28;20507;-64
2022/07/04 03:55:32;;;;;;;2.67;2.20;;;;;;;20.63;53.48;100714.47;5081009;28;20472;-65
2022/07/04 03:57:58;;;;;;;4.17;2.30;;;;;;;20.91;52.45;100721.78;5092457;28;20459;-63
2022/07/04 04:00:25;;;;;;;5.87;2.37;;;;;;;20.75;51.90;100728.34;5100020;28;20451;-63
2022/07/04 04:02:52;;;;;;;2.67;2.47;;;;;;;20.50;52.86;100725.16;5082681;28;20474;-63
2022/07/04 04:05:26;;;;;;;3.27;2.80;;;;;;;20.09;53.49;100725.78;5080551;28;20469;-63
2022/07/04 04:07:57;;;;;;;3.77;2.53;;;;;;;19.51;55.18;100728.38;5082589;28;20443;-63
2022/07/04 04:10:25;;;;;;;2.90;2.70;;;;;;;20.77;52.48;100725.44;5080391;28;20626;-63
2022/07/04 04:12:52;;;;;;;3.23;2.33;;;;;;;21.98;48.77;100726.00;5094443;28;20459;-67
2022/07/04 04:15:19;;;;;;;7.00;2.50;;;;;;;22.41;47.89;100724.88;5087655;28;20477;-66
2022/07/04 04:17:46;;;;;;;5.77;2.30;;;;;;;22.15;48.30;100728.31;5094721;28;20500;-66
2022/07/04 04:20:12;;;;;;;3.10;2.07;;;;;;;22.04;49.18;100735.22;5099908;28;20462;-66
2022/07/04 04:22:39;;;;;;;2.33;2.07;;;;;;;22.46;47.95;100735.97;5094091;28;20456;-66
2022/07/04 04:25:07;;;;;;;2.43;1.70;;;;;;;22.93;47.05;100744.19;5079141;28;20457;-65
2022/07/04 04:27:35;;;;;;;3.40;1.80;;;;;;;22.83;47.15;100746.50;5119438;28;20470;-65
2022/07/04 04:30:01;;;;;;;2.90;2.23;;;;;;;23.20;46.72;100744.22;5121007;28;20477;-65
2022/07/04 04:32:28;;;;;;;2.50;2.30;;;;;;;23.00;47.56;100746.91;5119422;28;20478;-66
2022/07/04 04:34:55;;;;;;;3.23;2.47;;;;;;;22.52;49.82;100745.22;5119960;28;20983;-65
2022/07/04 04:37:21;;;;;;;4.90;2.57;;;;;;;22.80;48.88;100746.94;5090737;28;20495;-67
2022/07/04 04:39:48;;;;;;;2.60;2.40;;;;;;;22.43;48.97;100743.72;5097387;28;20458;-66
2022/07/04 04:42:15;;;;;;;4.40;2.77;;;;;;;21.90;49.94;100744.38;5116354;28;20478;-66
2022/07/04 04:44:43;;;;;;;3.17;2.07;;;;;;;22.71;48.44;100749.03;5117940;27;20477;-66
2022/07/04 04:47:10;;;;;;;4.07;2.43;;;;;;;23.20;46.64;100752.41;5116477;28;20470;-66
2022/07/04 04:49:36;;;;;;;3.87;2.77;;;;;;;24.28;44.58;100761.94;5119789;28;20491;-67
2022/07/04 04:52:05;;;;;;;3.60;2.53;;;;;;;24.95;43.20;100760.44;5109107;28;20486;-67
2022/07/04 04:54:32;;;;;;;3.73;2.47;;;;;;;25.20;42.50;100762.31;5098340;28;20497;-66
2022/07/04 04:56:59;;;;;;;3.53;2.60;;;;;;;25.67;41.88;100762.69;5115014;28;20910;-66
2022/07/04 04:59:26;;;;;;;4.30;3.80;;;;;;;24.92;43.59;100760.88;5120010;28;20462;-66
2022/07/04 05:01:54;;;;;;;5.43;4.17;;;;;;;23.88;46.83;100757.50;5117495;28;20513;-65
2022/07/04 05:04:20;;;;;;;4.30;3.37;;;;;;;25.55;43.45;100757.16;5119901;28;20442;-67
2022/07/04 05:06:47;;;;;;;5.30;4.13;;;;;;;24.59;45.14;100747.47;5117831;28;20535;-68
2022/07/04 05:09:14;;;;;;;4.47;4.03;;;;;;;23.20;48.59;100755.13;5118050;28;20430;-66
2022/07/04 05:11:40;;;;;;;3.43;3.13;;;;;;;24.55;46.06;100757.19;5117767;28;20470;-64
2022/07/04 05:14:07;;;;;;;6.00;3.80;;;;;;;25.25;43.65;100751.56;5118800;28;20450;-67
2022/07/04 05:16:34;;;;;;;4.57;4.03;;;;;;;24.55;45.27;100749.81;5105531;28;20463;-67
2022/07/04 05:19:02;;;;;;;4.00;3.07;;;;;;;24.62;45.18;100747.03;5099350;28;20452;-69
2022/07/04 05:21:28;;;;;;;4.03;3.10;;;;;;;25.52;43.53;100759.53;5102326;28;20498;-66
2022/07/04 05:23:55;;;;;;;4.27;3.87;;;;;;;26.07;41.63;100756.75;5102171;28;20462;-67
2022/07/04 05:26:22;;;;;;;5.83;4.00;;;;;;;25.14;43.88;100750.38;5111799;28;20493;-68
2022/07/04 05:28:49;;;;;;;5.63;3.70;;;;;;;26.43;41.27;100745.94;5107884;28;20443;-66
2022/07/04 05:31:16;;;;;;;4.13;3.70;;;;;;;26.51;41.30;100740.13;5112902;28;20505;-67
2022/07/04 05:33:42;;;;;;;3.90;3.50;;;;;;;27.01;39.93;100734.28;5122157;28;20470;-67
2022/07/04 05:36:10;;;;;;;6.77;3.53;;;;;;;25.93;42.02;100738.78;5107173;28;20483;-65
2022/07/04 05:38:37;;;;;;;6.67;4.57;;;;;;;24.87;44.82;100748.94;5082184;28;20439;-65
2022/07/04 05:41:04;;;;;;;6.80;3.80;;;;;;;26.97;40.34;100735.81;5085357;28;20471;-65
2022/07/04 05:43:30;;;;;;;5.37;4.30;;;;;;;27.08;39.72;100738.81;5081911;28;20456;-65
2022/07/04 05:45:57;;;;;;;6.13;4.00;;;;;;;27.52;39.01;100740.13;5088215;28;20954;-65
2022/07/04 05:48:24;;;;;;;6.97;4.23;;;;;;;27.05;40.03;100740.94;5103035;28;20906;-65
2022/07/04 05:50:50;;;;;;;4.67;4.17;;;;;;;26.36;41.09;100748.78;5092030;28;20553;-66
2022/07/04 05:53:19;;;;;;;5.10;4.30;;;;;;;27.21;39.80;100755.03;5103641;28;20917;-66
2022/07/04 05:55:46;;;;;;;7.07;4.50;;;;;;;25.66;42.80;100761.03;5101998;28;20486;-65
2022/07/04 05:58:13;;;;;;;6.57;4.97;;;;;;;24.24;46.18;100754.16;5105141;28;20445;-65
2022/07/04 06:00:40;;;;;;;6.30;4.37;;;;;;;25.55;43.89;100756.31;5101750;28;20478;-65
2022/07/04 06:03:07;;;;;;;5.40;4.50;;;;;;;26.91;40.57;100753.25;5102788;28;20480;-65
2022/07/04 06:05:34;;;;;;;6.43;4.83;;;;;;;25.64;42.58;100759.56;5102168;28;20581;-65
2022/07/04 06:08:01;;;;;;;11.87;4.60;;;;;;;25.73;42.26;100764.53;5102038;28;20473;-65
2022/07/04 06:10:29;;;;;;;5.30;4.83;;;;;;;27.22;39.72;100763.03;5082182;28;20583;-66
2022/07/04 06:12:56;;;;;;;7.93;4.00;;;;;;;27.59;38.46;100767.47;5083216;28;20479;-66
2022/07/04 06:15:22;;;;;;;3.87;3.50;;;;;;;27.99;37.12;100773.00;5087186;28;20489;-66
2022/07/04 06:17:49;;;;;;;4.20;3.13;;;;;;;28.88;35.46;100771.63;5102566;28;20476;-65
2022/07/04 06:20:16;;;;;;;4.67;4.10;;;;;;;28.60;36.16;100772.53;5101383;28;20435;-65
2022/07/04 06:22:44;;;;;;;6.07;3.63;;;;;;;27.71;38.68;100767.44;5102302;28;20455;-65
2022/07/04 06:25:12;;;;;;;6.23;3.93;;;;;;;29.05;36.04;100763.38;5101507;28;20922;-65
2022/07/04 06:27:40;;;;;;;4.93;3.93;;;;;;;27.20;39.50;100765.19;5102853;28;20458;-65
2022/07/04 06:30:08;;;;;;;4.60;4.20;;;;;;;26.91;39.83;100769.69;5100974;28;20481;-65
2022/07/04 06:32:43;;;;;;;9.10;3.97;;;;;;;25.01;44.09;100777.84;5102582;28;20516;-65
2022/07/04 06:37:53;;;;;;;4.57;3.43;;;;;;;20.78;53.34;100771.44;5102107;28;20456;-65
2022/07/04 06:40:20;;;;;;;5.03;3.20;;;;;;;22.18;51.00;100775.06;5101522;28;20451;-65
2022/07/04 06:42:50;;;;;;;4.33;2.57;;;;;;;22.89;47.65;100778.38;5113411;28;20449;-65
2022/07/04 06:45:16;;;;;;;3.93;2.30;;;;;;;25.83;41.42;100774.09;5120925;28;20430;-65
2022/07/04 06:47:43;;;;;;;4.47;2.10;;;;;;;25.64;39.31;100776.88;5122187;28;20434;-65
2022/07/04 06:50:10;;;;;;;5.30;2.63;;;;;;;25.97;38.99;100774.81;5122638;28;20474;-65
2022/07/04 06:52:37;;;;;;;4.30;1.77;;;;;;;27.22;36.22;100771.28;5121775;28;20501;-65
2022/07/04 06:55:04;;;;;;;2.87;1.97;;;;;;;24.85;40.96;100776.50;5121827;28;20513;-65
2022/07/04 06:57:31;;;;;;;7.23;2.80;;;;;;;24.96;40.41;100773.06;5122136;28;20580;-65
2022/07/04 06:59:59;;;;;;;4.73;1.90;;;;;;;25.18;39.07;100773.47;5122019;28;20434;-65
2022/07/04 07:02:26;;;;;;;3.40;2.00;;;;;;;26.28;37.84;100777.38;5122261;28;20474;-65
2022/07/04 07:04:54;;;;;;;4.53;2.17;;;;;;;24.71;39.87;100769.47;5121361;28;20449;-65
2022/07/04 07:07:21;;;;;;;4.23;1.73;;;;;;;26.61;36.39;100764.22;5121347;28;20469;-65
2022/07/04 07:09:48;;;;;;;3.50;1.60;;;;;;;25.64;37.35;100765.06;5121624;28;20458;-65
2022/07/04 07:12:14;;;;;;;2.70;1.73;;;;;;;26.11;36.35;100762.63;5122035;28;20482;-65
2022/07/04 07:14:41;;;;;;;3.37;1.23;;;;;;;26.44;33.39;100758.56;5121516;28;20465;-65
2022/07/04 07:17:09;;;;;;;2.50;1.13;;;;;;;25.61;35.29;100758.16;5120827;28;20474;-65
2022/07/04 07:19:36;;;;;;;1.83;0.90;;;;;;;27.50;33.08;100749.66;5101989;28;20473;-65
2022/07/04 07:22:03;;;;;;;1.77;1.10;;;;;;;28.37;30.68;100759.72;5100604;28;20509;-65
2022/07/04 07:24:30;;;;;;;6.20;1.23;;;;;;;28.18;32.05;100757.16;5101160;28;20583;-65
2022/07/04 07:26:57;;;;;;;7.73;1.30;;;;;;;27.00;33.34;100750.97;5101156;28;20478;-65
2022/07/04 07:29:24;;;;;;;3.10;1.10;;;;;;;27.08;32.53;100760.75;5100854;28;20459;-66
2022/07/04 07:31:51;;;;;;;3.00;1.30;;;;;;;26.61;33.80;100761.47;5100963;28;20506;-65
2022/07/04 07:34:19;;;;;;;2.53;1.30;;;;;;;27.62;32.01;100753.25;5120780;28;20461;-65
2022/07/04 07:36:46;;;;;;;5.00;1.47;;;;;;;28.34;31.16;100758.28;5120710;28;20477;-65
2022/07/04 07:39:12;;;;;;;5.67;1.30;;;;;;;28.45;30.81;100762.03;5121710;28;20890;-65
2022/07/04 07:41:39;;;;;;;1.80;1.23;;;;;;;28.36;30.91;100769.03;5121140;28;20503;-65
2022/07/04 07:44:06;;;;;;;3.77;1.20;;;;;;;27.41;32.18;100763.78;5120857;28;20503;-65
2022/07/04 07:46:33;;;;;;;4.53;1.50;;;;;;;27.24;32.49;100758.13;5120808;28;20802;-65
2022/07/04 07:48:59;;;;;;;3.10;1.00;;;;;;;27.53;31.01;100761.03;5121223;28;20476;-66
2022/07/04 07:51:27;;;;;;;3.37;1.30;;;;;;;30.18;26.95;100761.34;5120551;28;20493;-65
2022/07/04 07:53:54;;;;;;;3.37;1.07;;;;;;;29.82;27.94;100749.91;5121782;28;20522;-65
2022/07/04 07:56:22;;;;;;;7.77;1.27;;;;;;;29.61;29.12;100759.81;5120667;28;20462;-65
2022/07/04 07:58:49;;;;;;;2.97;1.20;;;;;;;29.84;28.78;100755.97;5120658;28;20454;-65
2022/07/04 08:01:15;;;;;;;1.40;1.00;;;;;;;29.18;29.38;100753.13;5120787;28;20903;-65
2022/07/04 08:06:28;;;;;;;3.37;1.00;;;;;;;27.81;30.76;100759.38;5099868;28;20469;-66
2022/07/04 08:08:54;;;;;;;2.97;1.10;;;;;;;29.87;28.37;100754.66;5101367;28;20459;-66
2022/07/04 08:11:21;;;;;;;3.83;1.57;;;;;;;25.47;35.10;100765.66;5099243;28;20928;-65
2022/07/04 08:13:48;;;;;;;3.60;0.90;;;;;;;28.14;31.59;100760.63;5100327;28;20873;-65
2022/07/04 08:16:15;;;;;;;2.63;1.30;;;;;;;29.21;29.74;100758.97;5099573;28;20475;-65
2022/07/04 08:18:41;;;;;;;3.70;1.70;;;;;;;29.19;29.73;100752.88;5117249;28;20450;-65
2022/07/04 08:21:08;;;;;;;2.00;1.13;;;;;;;26.02;34.21;100756.63;5119753;28;20505;-65
2022/07/04 08:23:37;;;;;;;4.03;1.30;;;;;;;24.83;37.28;100759.50;5121269;28;20476;-65
2022/07/04 08:26:04;;;;;;;3.23;1.23;;;;;;;25.22;36.22;100753.88;5119864;28;20474;-65
2022/07/04 08:28:31;;;;;;;1.87;1.07;;;;;;;26.96;32.66;100755.25;5119994;28;20824;-65
2022/07/04 08:30:59;;;;;;;6.40;1.40;;;;;;;28.51;30.62;100760.25;5120103;28;20496;-65
2022/07/04 08:33:26;;;;;;;2.23;1.67;;;;;;;28.33;31.35;100764.03;5120537;28;20509;-65
2022/07/04 08:35:53;;;;;;;2.70;1.13;;;;;;;29.14;29.69;100762.97;5119859;28;20552;-65
2022/07/04 08:38:21;;;;;;;3.40;1.20;;;;;;;27.49;31.79;100764.47;5121020;28;20449;-65
2022/07/04 08:40:50;;;;;;;3.33;1.10;;;;;;;26.99;32.88;100768.50;5119501;28;20549;-65
2022/07/04 08:43:23;;;;;;;3.97;1.10;;;;;;;26.60;32.75;100768.06;5120101;28;20541;-65
2022/07/04 08:45:50;;;;;;;2.83;0.80;;;;;;;28.70;29.68;100755.38;5119506;28;20470;-65
2022/07/04 08:48:17;;;;;;;3.37;1.10;;;;;;;27.61;30.98;100757.88;5119154;28;20486;-65
2022/07/04 08:50:45;;;;;;;2.77;0.90;;;;;;;27.42;31.72;100759.13;5118352;28;21104;-65
2022/07/04 08:53:13;;;;;;;1.53;1.00;;;;;;;28.04;32.22;100753.03;5120606;28;20511;-65
2022/07/04 08:58:26;;;;;;;2.33;1.13;;;;;;;28.53;29.16;100753.41;5119763;28;20527;-65
2022/07/04 09:00:53;;;;;;;1.70;0.70;;;;;;;30.82;27.47;100754.28;5119682;28;20468;-66
2022/07/04 09:03:21;;;;;;;3.40;1.30;;;;;;;27.89;30.62;100761.75;5120134;28;21329;-66
2022/07/04 09:05:48;;;;;;;2.23;1.10;;;;;;;27.56;31.58;100756.94;5118114;28;20468;-65
2022/07/04 09:08:14;;;;;;;2.30;0.80;;;;;;;28.88;28.82;100740.53;5119989;28;20454;-65
2022/07/04 09:10:41;;;;;;;2.00;1.00;;;;;;;28.72;28.50;100756.78;5119136;28;20473;-65
2022/07/04 09:13:10;;;;;;;2.20;0.77;;;;;;;27.91;30.71;100758.78;5119903;28;20503;-65
2022/07/04 09:15:38;;;;;;;2.43;1.10;;;;;;;28.88;29.46;100741.34;5119969;28;20470;-65
2022/07/04 09:18:06;;;;;;;2.63;0.97;;;;;;;27.41;32.76;100746.44;5119976;28;20442;-65
2022/07/04 09:20:34;;;;;;;2.10;0.83;;;;;;;29.18;30.56;100745.69;5118592;28;20534;-65
2022/07/04 09:23:01;;;;;;;2.03;1.13;;;;;;;26.97;32.73;100752.28;5120298;28;20434;-65
2022/07/04 09:25:28;;;;;;;1.40;0.73;;;;;;;27.42;32.01;100759.13;5118937;28;20525;-66
2022/07/04 09:27:56;;;;;;;1.43;0.70;;;;;;;28.57;28.65;100758.44;5119480;28;20446;-66
2022/07/04 09:30:24;;;;;;;13.10;9.80;;;;;;;28.72;29.34;100753.22;5119529;28;20430;-65
2022/07/04 09:32:59;;;;;;;5.30;1.50;;;;;;;29.52;27.92;100753.91;5119578;28;20496;-65
2022/07/04 09:35:27;;;;;;;1.83;1.00;;;;;;;29.93;27.57;100750.84;5118538;28;20617;-65
2022/07/04 09:37:55;;;;;;;1.87;0.80;;;;;;;28.40;29.95;100753.72;5120545;28;20457;-65
2022/07/04 09:40:24;;;;;;;3.73;1.03;;;;;;;27.37;31.75;100748.84;5118482;28;20523;-65
2022/07/04 09:42:50;;;;;;;2.60;0.90;;;;;;;29.81;28.31;100749.06;5119366;28;20462;-65
2022/07/04 09:45:17;;;;;;;2.00;1.03;;;;;;;31.02;26.66;100751.69;5119056;28;20453;-65
2022/07/04 09:47:46;;;;;;;2.27;0.90;;;;;;;32.08;25.30;100735.13;5119599;28;20472;-65
2022/07/04 09:50:15;;;;;;;1.37;0.67;;;;;;;30.50;26.10;100735.75;5118746;28;20430;-65
2022/07/04 09:52:50;;;;;;;3.10;0.70;;;;;;;29.32;27.34;100754.44;5120231;28;20461;-65
2022/07/04 09:55:27;;;;;;;1.77;0.60;;;;;;;31.60;24.81;100729.69;5118743;28;20479;-66
2022/07/04 09:57:55;;;;;;;1.50;0.60;;;;;;;31.36;25.11;100737.53;5118872;28;21267;-65
2022/07/04 10:00:24;;;;;;;1.57;0.50;;;;;;;31.04;25.01;100732.09;5119555;28;20427;-65
2022/07/04 10:02:52;;;;;;;2.57;0.93;;;;;;;29.44;27.43;100732.28;5119750;28;20484;-65
2022/07/04 10:05:24;;;;;;;1.73;0.90;;;;;;;28.86;28.69;100739.94;5117648;28;20454;-65
2022/07/04 10:07:50;;;;;;;2.97;0.90;;;;;;;29.54;29.06;100729.69;5123515;28;20951;-64
2022/07/04 10:10:28;;;;;;;2.93;0.80;;;;;;;30.41;27.46;100729.88;5122601;28;20446;-65
2022/07/04 10:12:56;;;;;;;3.23;0.90;;;;;;;30.90;25.98;100731.69;5122148;28;20499;-65
2022/07/04 10:15:23;;;;;;;1.93;1.00;;;;;;;31.47;25.60;100719.91;5123320;28;20437;-65
2022/07/04 10:17:50;;;;;;;2.57;1.03;;;;;;;30.35;27.82;100726.25;5123083;28;20454;-65
2022/07/04 10:20:17;;;;;;;3.43;0.70;;;;;;;30.60;27.01;100727.56;5121967;28;20467;-65
2022/07/04 10:22:45;;;;;;;3.13;1.00;;;;;;;30.86;26.80;100716.75;5123438;28;20452;-65
2022/07/04 10:25:12;;;;;;;1.90;0.80;;;;;;;29.20;27.97;100729.78;5121845;28;20538;-65
2022/07/04 10:27:39;;;;;;;3.13;1.23;;;;;;;30.20;27.17;100726.06;5122318;28;20438;-65
2022/07/04 10:30:08;;;;;;;4.17;0.60;;;;;;;31.62;26.45;100716.41;5122626;28;20434;-65
2022/07/04 10:32:35;;;;;;;1.30;0.63;;;;;;;31.22;25.00;100725.31;5122484;28;20900;-65
2022/07/04 10:35:02;;;;;;;1.20;0.67;;;;;;;32.02;24.48;100725.13;5122090;28;20511;-66
2022/07/04 10:38:00;;;;;;;4.17;0.97;;;;;;;30.52;26.54;100722.53;5122631;28;20473;-66
2022/07/04 10:40:45;;;;;;;0.93;0.60;;;;;;;30.96;26.22;100719.63;5121687;28;20462;-66
2022/07/04 10:44:00;;;;;;;2.03;0.77;;;;;;;29.35;28.07;100731.06;5122644;28;20432;-66
2022/07/04 10:46:34;;;;;;;2.43;0.70;;;;;;;30.89;26.30;100719.00;5110674;28;20799;-66
2022/07/04 10:49:03;;;;;;;2.43;0.80;;;;;;;31.48;24.77;100709.69;5122077;28;20966;-66
2022/07/04 10:51:35;;;;;;;2.70;0.93;;;;;;;31.69;24.49;100722.53;5122098;28;20470;-66
2022/07/04 10:54:05;;;;;;;1.93;1.00;;;;;;;32.44;23.53;100719.41;5122769;28;20504;-66
2022/07/04 10:56:43;;;;;;;4.00;1.17;;;;;;;30.85;25.11;100723.34;5121444;28;20538;-66
2022/07/04 10:59:12;;;;;;;4.23;1.00;;;;;;;27.49;29.63;100717.81;5122149;28;20458;-66
2022/07/04 11:01:39;;;;;;;2.23;0.60;;;;;;;27.42;31.34;100720.66;5121719;28;20493;-66
2022/07/04 11:04:05;;;;;;;1.33;0.63;;;;;;;27.83;29.80;100727.03;5121161;28;21087;-66
2022/07/04 11:06:56;;;;;;;1.97;0.93;;;;;;;28.34;29.36;100727.19;5121807;28;20466;-66
2022/07/04 11:09:25;;;;;;;2.30;0.73;;;;;;;27.39;31.26;100716.50;5101201;28;20466;-66
2022/07/04 11:11:55;;;;;;;4.17;0.87;;;;;;;26.54;32.10;100706.75;5120305;28;20499;-65
2022/07/04 11:14:49;;;;;;;2.07;0.80;;;;;;;26.11;33.77;100714.13;5121710;28;20628;-65
2022/07/04 11:17:21;;;;;;;2.90;1.10;;;;;;;26.01;34.01;100711.13;5083021;28;20485;-66
2022/07/04 11:19:48;;;;;;;1.73;1.10;;;;;;;25.98;34.16;100714.31;5120995;28;20450;-66
2022/07/04 11:22:23;;;;;;;4.13;1.10;;;;;;;25.41;35.32;100716.47;5121287;28;20490;-66
2022/07/04 11:24:51;;;;;;;2.50;1.00;;;;;;;25.84;35.12;100708.13;5121033;28;20453;-65
2022/07/04 11:27:21;;;;;;;1.70;0.87;;;;;;;25.06;35.63;100711.53;5120377;28;21111;-65
2022/07/04 11:29:51;;;;;;;1.77;0.90;;;;;;;26.01;34.21;100700.16;5121410;28;20446;-65
2022/07/04 11:32:18;;;;;;;2.30;1.03;;;;;;;25.72;33.69;100704.50;5120572;28;20584;-65
2022/07/04 11:34:46;;;;;;;7.50;1.20;;;;;;;26.23;34.47;100703.22;5121029;28;20457;-65
2022/07/04 11:37:13;;;;;;;3.23;1.10;;;;;;;26.10;34.98;100708.88;5120914;28;20470;-65
2022/07/04 11:39:40;;;;;;;3.27;1.30;;;;;;;26.39;33.72;100695.41;5120569;28;20889;-65
2022/07/04 11:45:05;;;;;;;1.63;0.77;;;;;;;30.08;27.85;100686.78;5121195;28;20444;-65